sensor_id;sensor_type;location;lat;lon;timestamp;P1;durP1;ratioP1;P2;durP2;ratioP2
3307;SDS011;1666;48.898;9.182;2022-11-20T00:02:21;25.77;;;15.40;;
3307;SDS011;1666;48.898;9.182;2022-11-20T00:04:51;24.25;;;14.52;;
3307;SDS011;1666;48.898;9.182;2022-11-20T00:07:21;28.67;;;16.38;;
3307;SDS011;1666;48.898;9.182;2022-11-20T00:09:51;32.22;;;17.73;;
3307;SDS011;1666;48.898;9.182;2022-11-20T00:12:23;33.42;;;18.67;;
3307;SDS011;1666;48.898;9.182;2022-11-20T00:14:53;37.05;;;17.88;;
3307;SDS011;1666;48.898;9.182;2022-11-20T00:17:23;33.75;;;18.33;;
3307;SDS011;1666;48.898;9.182;2022-11-20T00:19:52;34.13;;;18.05;;
3307;SDS011;1666;48.898;9.182;2022-11-20T00:22:22;35.97;;;18.92;;
3307;SDS011;1666;48.898;9.182;2022-11-20T00:24:52;35.70;;;18.10;;
3307;SDS011;1666;48.898;9.182;2022-11-20T00:27:26;38.92;;;17.85;;
3307;SDS011;1666;48.898;9.182;2022-11-20T00:29:56;34.70;;;18.10;;
3307;SDS011;1666;48.898;9.182;2022-11-20T00:32:25;35.53;;;18.15;;
3307;SDS011;1666;48.898;9.182;2022-11-20T00:34:55;30.67;;;16.30;;
3307;SDS011;1666;48.898;9.182;2022-11-20T00:37:25;29.63;;;15.10;;
3307;SDS011;1666;48.898;9.182;2022-11-20T00:39:55;29.20;;;16.90;;
3307;SDS011;1666;48.898;9.182;2022-11-20T00:42:28;30.63;;;14.98;;
3307;SDS011;1666;48.898;9.182;2022-11-20T00:44:59;32.93;;;15.57;;
3307;SDS011;1666;48.898;9.182;2022-11-20T00:47:29;29.75;;;16.13;;
3307;SDS011;1666;48.898;9.182;2022-11-20T00:49:59;29.17;;;16.30;;
3307;SDS011;1666;48.898;9.182;2022-11-20T00:52:29;26.90;;;15.73;;
3307;SDS011;1666;48.898;9.182;2022-11-20T00:54:58;29.88;;;15.85;;
3307;SDS011;1666;48.898;9.182;2022-11-20T00:57:31;26.52;;;15.07;;
3307;SDS011;1666;48.898;9.182;2022-11-20T01:00:01;29.30;;;15.95;;
3307;SDS011;1666;48.898;9.182;2022-11-20T01:02:31;26.95;;;15.85;;
3307;SDS011;1666;48.898;9.182;2022-11-20T01:05:01;28.45;;;15.52;;
3307;SDS011;1666;48.898;9.182;2022-11-20T01:07:31;25.08;;;13.88;;
3307;SDS011;1666;48.898;9.182;2022-11-20T01:10:01;23.35;;;13.80;;
3307;SDS011;1666;48.898;9.182;2022-11-20T01:12:34;24.23;;;14.15;;
3307;SDS011;1666;48.898;9.182;2022-11-20T01:15:04;20.48;;;12.90;;
3307;SDS011;1666;48.898;9.182;2022-11-20T01:17:35;21.55;;;12.95;;
3307;SDS011;1666;48.898;9.182;2022-11-20T01:20:05;19.40;;;12.77;;
3307;SDS011;1666;48.898;9.182;2022-11-20T01:22:36;21.17;;;13.30;;
3307;SDS011;1666;48.898;9.182;2022-11-20T01:25:06;19.33;;;12.07;;
3307;SDS011;1666;48.898;9.182;2022-11-20T01:27:39;20.55;;;12.65;;
3307;SDS011;1666;48.898;9.182;2022-11-20T01:30:09;21.02;;;13.45;;
3307;SDS011;1666;48.898;9.182;2022-11-20T01:32:40;22.70;;;12.95;;
3307;SDS011;1666;48.898;9.182;2022-11-20T01:35:09;21.45;;;12.82;;
3307;SDS011;1666;48.898;9.182;2022-11-20T01:37:39;23.38;;;13.35;;
3307;SDS011;1666;48.898;9.182;2022-11-20T01:40:10;24.63;;;14.85;;
3307;SDS011;1666;48.898;9.182;2022-11-20T01:42:46;25.10;;;14.52;;
3307;SDS011;1666;48.898;9.182;2022-11-20T01:48:34;27.75;;;14.48;;
3307;SDS011;1666;48.898;9.182;2022-11-20T01:51:10;25.48;;;15.13;;
3307;SDS011;1666;48.898;9.182;2022-11-20T01:53:44;23.75;;;13.68;;
3307;SDS011;1666;48.898;9.182;2022-11-20T01:56:15;25.15;;;14.43;;
3307;SDS011;1666;48.898;9.182;2022-11-20T01:58:49;23.23;;;14.95;;
3307;SDS011;1666;48.898;9.182;2022-11-20T02:01:22;20.95;;;13.27;;
3307;SDS011;1666;48.898;9.182;2022-11-20T02:03:52;20.83;;;13.63;;
3307;SDS011;1666;48.898;9.182;2022-11-20T02:06:23;21.67;;;14.52;;
3307;SDS011;1666;48.898;9.182;2022-11-20T02:08:54;18.65;;;12.30;;
3307;SDS011;1666;48.898;9.182;2022-11-20T02:11:24;19.50;;;11.82;;
3307;SDS011;1666;48.898;9.182;2022-11-20T02:13:57;20.50;;;12.10;;
3307;SDS011;1666;48.898;9.182;2022-11-20T02:16:26;17.05;;;11.88;;
3307;SDS011;1666;48.898;9.182;2022-11-20T02:18:59;17.73;;;11.93;;
3307;SDS011;1666;48.898;9.182;2022-11-20T02:21:33;19.02;;;11.73;;
3307;SDS011;1666;48.898;9.182;2022-11-20T02:24:10;17.75;;;11.57;;
3307;SDS011;1666;48.898;9.182;2022-11-20T02:26:43;18.95;;;12.30;;
3307;SDS011;1666;48.898;9.182;2022-11-20T02:29:17;16.25;;;11.25;;
3307;SDS011;1666;48.898;9.182;2022-11-20T02:31:52;18.65;;;11.82;;
3307;SDS011;1666;48.898;9.182;2022-11-20T02:34:24;20.27;;;11.90;;
3307;SDS011;1666;48.898;9.182;2022-11-20T02:36:54;19.63;;;12.15;;
3307;SDS011;1666;48.898;9.182;2022-11-20T02:39:28;17.60;;;10.80;;
3307;SDS011;1666;48.898;9.182;2022-11-20T02:41:58;16.50;;;10.80;;
3307;SDS011;1666;48.898;9.182;2022-11-20T02:44:30;14.88;;;10.18;;
3307;SDS011;1666;48.898;9.182;2022-11-20T02:47:00;14.55;;;9.27;;
3307;SDS011;1666;48.898;9.182;2022-11-20T02:49:30;17.98;;;10.05;;
3307;SDS011;1666;48.898;9.182;2022-11-20T02:51:59;13.35;;;9.90;;
3307;SDS011;1666;48.898;9.182;2022-11-20T02:54:33;14.45;;;9.90;;
3307;SDS011;1666;48.898;9.182;2022-11-20T02:57:02;14.95;;;9.90;;
3307;SDS011;1666;48.898;9.182;2022-11-20T02:59:32;15.85;;;10.18;;
3307;SDS011;1666;48.898;9.182;2022-11-20T03:02:02;14.85;;;9.68;;
3307;SDS011;1666;48.898;9.182;2022-11-20T03:04:32;15.68;;;8.90;;
3307;SDS011;1666;48.898;9.182;2022-11-20T03:07:02;9.85;;;6.78;;
3307;SDS011;1666;48.898;9.182;2022-11-20T03:09:35;13.15;;;7.05;;
3307;SDS011;1666;48.898;9.182;2022-11-20T03:12:05;9.63;;;7.15;;
3307;SDS011;1666;48.898;9.182;2022-11-20T03:14:35;8.25;;;5.82;;
3307;SDS011;1666;48.898;9.182;2022-11-20T03:17:05;8.70;;;5.93;;
3307;SDS011;1666;48.898;9.182;2022-11-20T03:19:35;11.07;;;6.28;;
3307;SDS011;1666;48.898;9.182;2022-11-20T03:22:05;8.55;;;6.28;;
3307;SDS011;1666;48.898;9.182;2022-11-20T03:24:38;8.90;;;5.88;;
3307;SDS011;1666;48.898;9.182;2022-11-20T03:27:07;9.45;;;6.18;;
3307;SDS011;1666;48.898;9.182;2022-11-20T03:29:37;11.00;;;6.63;;
3307;SDS011;1666;48.898;9.182;2022-11-20T03:32:07;9.13;;;6.10;;
3307;SDS011;1666;48.898;9.182;2022-11-20T03:34:37;9.05;;;6.03;;
3307;SDS011;1666;48.898;9.182;2022-11-20T03:37:07;9.27;;;5.93;;
3307;SDS011;1666;48.898;9.182;2022-11-20T03:39:39;10.07;;;5.97;;
3307;SDS011;1666;48.898;9.182;2022-11-20T03:42:09;9.75;;;5.68;;
3307;SDS011;1666;48.898;9.182;2022-11-20T03:44:59;8.98;;;5.63;;
3307;SDS011;1666;48.898;9.182;2022-11-20T03:47:29;10.80;;;5.45;;
3307;SDS011;1666;48.898;9.182;2022-11-20T03:49:59;8.10;;;5.40;;
3307;SDS011;1666;48.898;9.182;2022-11-20T03:52:29;5.93;;;4.68;;
3307;SDS011;1666;48.898;9.182;2022-11-20T03:55:01;9.98;;;5.82;;
3307;SDS011;1666;48.898;9.182;2022-11-20T03:57:31;6.15;;;4.70;;
3307;SDS011;1666;48.898;9.182;2022-11-20T04:00:02;6.85;;;4.43;;
3307;SDS011;1666;48.898;9.182;2022-11-20T04:02:32;8.07;;;4.90;;
3307;SDS011;1666;48.898;9.182;2022-11-20T04:05:02;6.40;;;3.97;;
3307;SDS011;1666;48.898;9.182;2022-11-20T04:07:33;8.25;;;4.40;;
3307;SDS011;1666;48.898;9.182;2022-11-20T04:10:07;5.45;;;3.88;;
3307;SDS011;1666;48.898;9.182;2022-11-20T04:12:37;5.70;;;4.00;;
3307;SDS011;1666;48.898;9.182;2022-11-20T04:15:07;6.75;;;4.13;;
3307;SDS011;1666;48.898;9.182;2022-11-20T04:17:37;4.07;;;3.67;;
3307;SDS011;1666;48.898;9.182;2022-11-20T04:20:07;8.68;;;4.25;;
3307;SDS011;1666;48.898;9.182;2022-11-20T04:22:38;5.00;;;4.20;;
3307;SDS011;1666;48.898;9.182;2022-11-20T04:25:10;7.00;;;4.13;;
3307;SDS011;1666;48.898;9.182;2022-11-20T04:27:40;5.00;;;3.92;;
3307;SDS011;1666;48.898;9.182;2022-11-20T04:30:11;5.75;;;3.97;;
3307;SDS011;1666;48.898;9.182;2022-11-20T04:32:41;6.95;;;4.13;;
3307;SDS011;1666;48.898;9.182;2022-11-20T04:35:11;6.30;;;4.00;;
3307;SDS011;1666;48.898;9.182;2022-11-20T04:37:41;5.28;;;3.63;;
3307;SDS011;1666;48.898;9.182;2022-11-20T04:40:14;5.20;;;4.10;;
3307;SDS011;1666;48.898;9.182;2022-11-20T04:42:44;8.63;;;4.05;;
3307;SDS011;1666;48.898;9.182;2022-11-20T04:45:13;7.65;;;4.25;;
3307;SDS011;1666;48.898;9.182;2022-11-20T04:47:43;7.60;;;4.38;;
3307;SDS011;1666;48.898;9.182;2022-11-20T04:50:13;4.88;;;4.10;;
3307;SDS011;1666;48.898;9.182;2022-11-20T04:52:43;5.78;;;4.18;;
3307;SDS011;1666;48.898;9.182;2022-11-20T04:55:16;8.48;;;4.45;;
3307;SDS011;1666;48.898;9.182;2022-11-20T04:57:45;6.28;;;4.85;;
3307;SDS011;1666;48.898;9.182;2022-11-20T05:00:19;6.20;;;4.10;;
3307;SDS011;1666;48.898;9.182;2022-11-20T05:02:49;7.55;;;4.72;;
3307;SDS011;1666;48.898;9.182;2022-11-20T05:05:19;5.80;;;4.45;;
3307;SDS011;1666;48.898;9.182;2022-11-20T05:07:49;7.15;;;4.43;;
3307;SDS011;1666;48.898;9.182;2022-11-20T05:10:21;6.50;;;4.38;;
3307;SDS011;1666;48.898;9.182;2022-11-20T05:12:51;4.57;;;3.70;;
3307;SDS011;1666;48.898;9.182;2022-11-20T05:15:21;6.25;;;4.28;;
3307;SDS011;1666;48.898;9.182;2022-11-20T05:17:51;6.45;;;4.30;;
3307;SDS011;1666;48.898;9.182;2022-11-20T05:20:22;5.22;;;4.50;;
3307;SDS011;1666;48.898;9.182;2022-11-20T05:22:51;5.15;;;4.10;;
3307;SDS011;1666;48.898;9.182;2022-11-20T05:25:24;6.32;;;4.57;;
3307;SDS011;1666;48.898;9.182;2022-11-20T05:27:54;6.82;;;4.68;;
3307;SDS011;1666;48.898;9.182;2022-11-20T05:30:24;6.68;;;4.60;;
3307;SDS011;1666;48.898;9.182;2022-11-20T05:32:53;7.70;;;5.05;;
3307;SDS011;1666;48.898;9.182;2022-11-20T05:35:23;6.45;;;4.78;;
3307;SDS011;1666;48.898;9.182;2022-11-20T05:37:53;8.77;;;5.28;;
3307;SDS011;1666;48.898;9.182;2022-11-20T05:40:25;6.05;;;4.57;;
3307;SDS011;1666;48.898;9.182;2022-11-20T05:42:55;5.68;;;4.32;;
3307;SDS011;1666;48.898;9.182;2022-11-20T05:45:25;5.97;;;4.82;;
3307;SDS011;1666;48.898;9.182;2022-11-20T05:47:57;4.75;;;4.28;;
3307;SDS011;1666;48.898;9.182;2022-11-20T05:50:28;4.88;;;4.32;;
3307;SDS011;1666;48.898;9.182;2022-11-20T05:52:58;6.93;;;5.10;;
3307;SDS011;1666;48.898;9.182;2022-11-20T05:55:30;5.55;;;4.03;;
3307;SDS011;1666;48.898;9.182;2022-11-20T05:58:00;5.60;;;4.70;;
3307;SDS011;1666;48.898;9.182;2022-11-20T06:00:30;5.20;;;4.05;;
3307;SDS011;1666;48.898;9.182;2022-11-20T06:03:00;7.05;;;4.07;;
3307;SDS011;1666;48.898;9.182;2022-11-20T06:05:30;6.90;;;3.70;;
3307;SDS011;1666;48.898;9.182;2022-11-20T06:08:00;6.53;;;3.80;;
3307;SDS011;1666;48.898;9.182;2022-11-20T06:10:32;5.15;;;3.78;;
3307;SDS011;1666;48.898;9.182;2022-11-20T06:13:02;5.40;;;4.03;;
3307;SDS011;1666;48.898;9.182;2022-11-20T06:15:32;4.82;;;3.83;;
3307;SDS011;1666;48.898;9.182;2022-11-20T06:18:02;6.20;;;3.90;;
3307;SDS011;1666;48.898;9.182;2022-11-20T06:20:31;5.45;;;4.00;;
3307;SDS011;1666;48.898;9.182;2022-11-20T06:23:07;4.20;;;3.53;;
3307;SDS011;1666;48.898;9.182;2022-11-20T06:25:40;5.97;;;3.90;;
3307;SDS011;1666;48.898;9.182;2022-11-20T06:28:11;7.47;;;3.92;;
3307;SDS011;1666;48.898;9.182;2022-11-20T06:30:44;5.20;;;3.65;;
3307;SDS011;1666;48.898;9.182;2022-11-20T06:33:14;4.95;;;3.67;;
3307;SDS011;1666;48.898;9.182;2022-11-20T06:35:44;4.93;;;3.55;;
3307;SDS011;1666;48.898;9.182;2022-11-20T06:38:14;8.00;;;4.18;;
3307;SDS011;1666;48.898;9.182;2022-11-20T06:40:46;3.90;;;3.38;;
3307;SDS011;1666;48.898;9.182;2022-11-20T06:43:16;5.20;;;3.60;;
3307;SDS011;1666;48.898;9.182;2022-11-20T06:45:46;4.15;;;3.40;;
3307;SDS011;1666;48.898;9.182;2022-11-20T06:48:20;7.22;;;3.67;;
3307;SDS011;1666;48.898;9.182;2022-11-20T06:50:50;5.68;;;3.58;;
3307;SDS011;1666;48.898;9.182;2022-11-20T06:53:20;4.88;;;3.63;;
3307;SDS011;1666;48.898;9.182;2022-11-20T06:55:55;4.53;;;3.00;;
3307;SDS011;1666;48.898;9.182;2022-11-20T06:58:26;4.93;;;3.75;;
3307;SDS011;1666;48.898;9.182;2022-11-20T07:00:57;3.97;;;3.10;;
3307;SDS011;1666;48.898;9.182;2022-11-20T07:03:31;5.28;;;3.38;;
3307;SDS011;1666;48.898;9.182;2022-11-20T07:06:01;5.82;;;3.10;;
3307;SDS011;1666;48.898;9.182;2022-11-20T07:08:32;7.03;;;3.90;;
3307;SDS011;1666;48.898;9.182;2022-11-20T07:11:05;4.30;;;3.25;;
3307;SDS011;1666;48.898;9.182;2022-11-20T07:13:36;4.72;;;3.40;;
3307;SDS011;1666;48.898;9.182;2022-11-20T07:16:06;3.30;;;2.85;;
3307;SDS011;1666;48.898;9.182;2022-11-20T07:18:37;5.72;;;3.00;;
3307;SDS011;1666;48.898;9.182;2022-11-20T07:21:14;4.53;;;2.78;;
3307;SDS011;1666;48.898;9.182;2022-11-20T07:23:44;4.93;;;3.53;;
3307;SDS011;1666;48.898;9.182;2022-11-20T07:26:16;4.72;;;3.00;;
3307;SDS011;1666;48.898;9.182;2022-11-20T07:28:46;5.00;;;3.30;;
3307;SDS011;1666;48.898;9.182;2022-11-20T07:31:16;4.40;;;2.80;;
3307;SDS011;1666;48.898;9.182;2022-11-20T07:33:46;3.70;;;3.20;;
3307;SDS011;1666;48.898;9.182;2022-11-20T07:36:15;6.50;;;3.05;;
3307;SDS011;1666;48.898;9.182;2022-11-20T07:38:45;3.38;;;2.67;;
3307;SDS011;1666;48.898;9.182;2022-11-20T07:41:17;4.22;;;3.05;;
3307;SDS011;1666;48.898;9.182;2022-11-20T07:43:47;3.20;;;2.88;;
3307;SDS011;1666;48.898;9.182;2022-11-20T07:46:17;3.90;;;2.60;;
3307;SDS011;1666;48.898;9.182;2022-11-20T07:48:47;3.15;;;2.42;;
3307;SDS011;1666;48.898;9.182;2022-11-20T07:51:17;3.45;;;2.60;;
3307;SDS011;1666;48.898;9.182;2022-11-20T07:53:47;3.15;;;2.67;;
3307;SDS011;1666;48.898;9.182;2022-11-20T07:56:21;3.75;;;2.80;;
3307;SDS011;1666;48.898;9.182;2022-11-20T07:58:51;4.05;;;2.60;;
3307;SDS011;1666;48.898;9.182;2022-11-20T08:01:21;8.45;;;2.83;;
3307;SDS011;1666;48.898;9.182;2022-11-20T08:03:54;3.67;;;2.60;;
3307;SDS011;1666;48.898;9.182;2022-11-20T08:06:24;4.35;;;2.65;;
3307;SDS011;1666;48.898;9.182;2022-11-20T08:08:54;3.15;;;2.58;;
3307;SDS011;1666;48.898;9.182;2022-11-20T08:11:27;3.38;;;2.42;;
3307;SDS011;1666;48.898;9.182;2022-11-20T08:14:09;3.15;;;2.28;;
3307;SDS011;1666;48.898;9.182;2022-11-20T08:16:42;3.80;;;2.30;;
3307;SDS011;1666;48.898;9.182;2022-11-20T08:19:14;4.13;;;2.30;;
3307;SDS011;1666;48.898;9.182;2022-11-20T08:21:45;4.40;;;2.50;;
3307;SDS011;1666;48.898;9.182;2022-11-20T08:24:15;3.92;;;2.60;;
3307;SDS011;1666;48.898;9.182;2022-11-20T08:26:48;3.83;;;2.42;;
3307;SDS011;1666;48.898;9.182;2022-11-20T08:29:18;3.33;;;2.40;;
3307;SDS011;1666;48.898;9.182;2022-11-20T08:31:48;4.78;;;2.47;;
3307;SDS011;1666;48.898;9.182;2022-11-20T08:34:18;1.73;;;1.45;;
3307;SDS011;1666;48.898;9.182;2022-11-20T08:36:48;1.85;;;1.60;;
3307;SDS011;1666;48.898;9.182;2022-11-20T08:39:18;3.05;;;1.42;;
3307;SDS011;1666;48.898;9.182;2022-11-20T08:41:51;4.07;;;1.65;;
3307;SDS011;1666;48.898;9.182;2022-11-20T08:44:20;1.80;;;1.38;;
3307;SDS011;1666;48.898;9.182;2022-11-20T08:46:50;3.80;;;1.60;;
3307;SDS011;1666;48.898;9.182;2022-11-20T08:49:20;3.28;;;1.90;;
3307;SDS011;1666;48.898;9.182;2022-11-20T08:51:50;1.13;;;0.80;;
3307;SDS011;1666;48.898;9.182;2022-11-20T08:54:21;1.02;;;0.85;;
3307;SDS011;1666;48.898;9.182;2022-11-20T08:56:54;1.08;;;0.80;;
3307;SDS011;1666;48.898;9.182;2022-11-20T08:59:23;2.95;;;1.08;;
3307;SDS011;1666;48.898;9.182;2022-11-20T09:02:13;1.25;;;0.85;;
3307;SDS011;1666;48.898;9.182;2022-11-20T09:04:43;1.25;;;0.80;;
3307;SDS011;1666;48.898;9.182;2022-11-20T09:07:13;2.58;;;0.80;;
3307;SDS011;1666;48.898;9.182;2022-11-20T09:09:43;1.02;;;0.80;;
3307;SDS011;1666;48.898;9.182;2022-11-20T09:12:35;2.17;;;0.50;;
3307;SDS011;1666;48.898;9.182;2022-11-20T09:15:05;2.00;;;0.88;;
3307;SDS011;1666;48.898;9.182;2022-11-20T09:17:37;1.52;;;0.85;;
3307;SDS011;1666;48.898;9.182;2022-11-20T09:20:07;1.30;;;0.77;;
3307;SDS011;1666;48.898;9.182;2022-11-20T09:22:39;2.90;;;0.80;;
3307;SDS011;1666;48.898;9.182;2022-11-20T09:25:09;1.52;;;0.90;;
3307;SDS011;1666;48.898;9.182;2022-11-20T09:27:41;1.83;;;1.13;;
3307;SDS011;1666;48.898;9.182;2022-11-20T09:30:13;1.73;;;1.20;;
3307;SDS011;1666;48.898;9.182;2022-11-20T09:32:43;1.40;;;0.90;;
3307;SDS011;1666;48.898;9.182;2022-11-20T09:35:13;0.90;;;0.80;;
3307;SDS011;1666;48.898;9.182;2022-11-20T09:37:45;1.50;;;0.70;;
3307;SDS011;1666;48.898;9.182;2022-11-20T09:40:17;1.00;;;0.70;;
3307;SDS011;1666;48.898;9.182;2022-11-20T09:42:54;1.98;;;0.80;;
3307;SDS011;1666;48.898;9.182;2022-11-20T09:45:30;2.83;;;0.90;;
3307;SDS011;1666;48.898;9.182;2022-11-20T09:48:17;1.48;;;1.00;;
3307;SDS011;1666;48.898;9.182;2022-11-20T09:51:05;1.40;;;0.93;;
3307;SDS011;1666;48.898;9.182;2022-11-20T09:53:46;1.88;;;0.95;;
3307;SDS011;1666;48.898;9.182;2022-11-20T09:56:28;2.05;;;1.13;;
3307;SDS011;1666;48.898;9.182;2022-11-20T09:59:02;1.75;;;1.38;;
3307;SDS011;1666;48.898;9.182;2022-11-20T10:01:35;1.77;;;1.33;;
3307;SDS011;1666;48.898;9.182;2022-11-20T10:06:44;1.38;;;1.10;;
3307;SDS011;1666;48.898;9.182;2022-11-20T10:09:43;1.77;;;1.33;;
3307;SDS011;1666;48.898;9.182;2022-11-20T10:12:22;2.22;;;1.45;;
3307;SDS011;1666;48.898;9.182;2022-11-20T10:15:01;1.85;;;1.40;;
3307;SDS011;1666;48.898;9.182;2022-11-20T10:20:39;2.22;;;1.58;;
3307;SDS011;1666;48.898;9.182;2022-11-20T10:23:23;3.72;;;1.60;;
3307;SDS011;1666;48.898;9.182;2022-11-20T10:26:15;2.70;;;1.83;;
3307;SDS011;1666;48.898;9.182;2022-11-20T10:28:56;4.20;;;1.90;;
3307;SDS011;1666;48.898;9.182;2022-11-20T10:31:40;2.13;;;1.70;;
3307;SDS011;1666;48.898;9.182;2022-11-20T10:34:14;2.95;;;2.00;;
3307;SDS011;1666;48.898;9.182;2022-11-20T10:36:51;3.35;;;1.98;;
3307;SDS011;1666;48.898;9.182;2022-11-20T10:39:25;2.63;;;1.98;;
3307;SDS011;1666;48.898;9.182;2022-11-20T10:42:03;2.17;;;1.30;;
3307;SDS011;1666;48.898;9.182;2022-11-20T10:44:40;2.30;;;1.10;;
3307;SDS011;1666;48.898;9.182;2022-11-20T10:47:35;2.88;;;1.35;;
3307;SDS011;1666;48.898;9.182;2022-11-20T10:50:05;3.00;;;1.48;;
3307;SDS011;1666;48.898;9.182;2022-11-20T10:52:49;1.90;;;1.33;;
3307;SDS011;1666;48.898;9.182;2022-11-20T10:55:33;2.03;;;1.33;;
3307;SDS011;1666;48.898;9.182;2022-11-20T10:58:14;1.90;;;1.42;;
3307;SDS011;1666;48.898;9.182;2022-11-20T11:00:51;2.70;;;1.95;;
3307;SDS011;1666;48.898;9.182;2022-11-20T11:03:25;4.65;;;2.17;;
3307;SDS011;1666;48.898;9.182;2022-11-20T11:05:59;4.28;;;2.65;;
3307;SDS011;1666;48.898;9.182;2022-11-20T11:08:32;3.28;;;2.40;;
3307;SDS011;1666;48.898;9.182;2022-11-20T11:11:07;5.47;;;3.00;;
3307;SDS011;1666;48.898;9.182;2022-11-20T11:13:49;4.30;;;3.10;;
3307;SDS011;1666;48.898;9.182;2022-11-20T11:16:20;5.45;;;3.28;;
3307;SDS011;1666;48.898;9.182;2022-11-20T11:19:02;6.10;;;3.33;;
3307;SDS011;1666;48.898;9.182;2022-11-20T11:21:33;6.65;;;3.30;;
3307;SDS011;1666;48.898;9.182;2022-11-20T11:24:15;4.97;;;3.00;;
3307;SDS011;1666;48.898;9.182;2022-11-20T11:27:11;3.83;;;2.90;;
3307;SDS011;1666;48.898;9.182;2022-11-20T11:29:44;4.18;;;3.03;;
3307;SDS011;1666;48.898;9.182;2022-11-20T11:32:15;5.35;;;2.70;;
3307;SDS011;1666;48.898;9.182;2022-11-20T11:35:00;3.70;;;3.00;;
3307;SDS011;1666;48.898;9.182;2022-11-20T11:37:32;4.88;;;2.75;;
3307;SDS011;1666;48.898;9.182;2022-11-20T11:40:04;3.28;;;2.30;;
3307;SDS011;1666;48.898;9.182;2022-11-20T11:42:54;2.80;;;2.35;;
3307;SDS011;1666;48.898;9.182;2022-11-20T11:47:53;4.00;;;2.50;;
3307;SDS011;1666;48.898;9.182;2022-11-20T11:50:28;5.05;;;2.63;;
3307;SDS011;1666;48.898;9.182;2022-11-20T11:53:05;4.13;;;1.80;;
3307;SDS011;1666;48.898;9.182;2022-11-20T11:55:39;3.60;;;1.85;;
3307;SDS011;1666;48.898;9.182;2022-11-20T11:58:17;4.70;;;2.58;;
3307;SDS011;1666;48.898;9.182;2022-11-20T12:01:00;7.65;;;2.30;;
3307;SDS011;1666;48.898;9.182;2022-11-20T12:03:36;3.15;;;2.42;;
3307;SDS011;1666;48.898;9.182;2022-11-20T12:06:12;6.50;;;2.38;;
3307;SDS011;1666;48.898;9.182;2022-11-20T12:08:44;8.25;;;2.33;;
3307;SDS011;1666;48.898;9.182;2022-11-20T12:11:20;5.80;;;2.65;;
3307;SDS011;1666;48.898;9.182;2022-11-20T12:14:00;4.93;;;1.70;;
3307;SDS011;1666;48.898;9.182;2022-11-20T12:16:34;1.92;;;1.58;;
3307;SDS011;1666;48.898;9.182;2022-11-20T12:19:07;3.63;;;1.80;;
3307;SDS011;1666;48.898;9.182;2022-11-20T12:21:45;12.27;;;3.17;;
3307;SDS011;1666;48.898;9.182;2022-11-20T12:24:40;7.50;;;4.10;;
3307;SDS011;1666;48.898;9.182;2022-11-20T12:30:21;5.40;;;2.70;;
3307;SDS011;1666;48.898;9.182;2022-11-20T12:33:07;5.97;;;3.17;;
3307;SDS011;1666;48.898;9.182;2022-11-20T12:35:55;6.32;;;3.25;;
3307;SDS011;1666;48.898;9.182;2022-11-20T12:38:58;5.78;;;2.80;;
3307;SDS011;1666;48.898;9.182;2022-11-20T12:44:57;6.10;;;3.00;;
3307;SDS011;1666;48.898;9.182;2022-11-20T12:47:49;2.28;;;1.17;;
3307;SDS011;1666;48.898;9.182;2022-11-20T12:50:28;5.35;;;1.90;;
3307;SDS011;1666;48.898;9.182;2022-11-20T12:53:27;2.83;;;1.63;;
3307;SDS011;1666;48.898;9.182;2022-11-20T12:56:07;1.42;;;1.30;;
3307;SDS011;1666;48.898;9.182;2022-11-20T13:01:24;1.33;;;0.93;;
3307;SDS011;1666;48.898;9.182;2022-11-20T13:04:14;2.35;;;1.20;;
3307;SDS011;1666;48.898;9.182;2022-11-20T13:06:55;2.38;;;1.23;;
3307;SDS011;1666;48.898;9.182;2022-11-20T13:09:26;3.70;;;1.10;;
3307;SDS011;1666;48.898;9.182;2022-11-20T13:12:01;3.55;;;1.48;;
3307;SDS011;1666;48.898;9.182;2022-11-20T13:14:36;2.63;;;1.63;;
3307;SDS011;1666;48.898;9.182;2022-11-20T13:17:09;3.90;;;1.00;;
3307;SDS011;1666;48.898;9.182;2022-11-20T13:19:47;2.17;;;1.20;;
3307;SDS011;1666;48.898;9.182;2022-11-20T13:22:24;2.03;;;1.15;;
3307;SDS011;1666;48.898;9.182;2022-11-20T13:24:55;2.50;;;1.17;;
3307;SDS011;1666;48.898;9.182;2022-11-20T13:27:27;5.25;;;1.63;;
3307;SDS011;1666;48.898;9.182;2022-11-20T13:30:02;4.88;;;1.38;;
3307;SDS011;1666;48.898;9.182;2022-11-20T13:32:53;6.40;;;1.30;;
3307;SDS011;1666;48.898;9.182;2022-11-20T13:35:27;1.38;;;0.77;;
3307;SDS011;1666;48.898;9.182;2022-11-20T13:38:00;3.97;;;1.70;;
3307;SDS011;1666;48.898;9.182;2022-11-20T13:40:32;4.30;;;1.10;;
3307;SDS011;1666;48.898;9.182;2022-11-20T13:43:07;2.63;;;1.10;;
3307;SDS011;1666;48.898;9.182;2022-11-20T13:45:53;2.75;;;1.50;;
3307;SDS011;1666;48.898;9.182;2022-11-20T13:48:25;1.60;;;1.20;;
3307;SDS011;1666;48.898;9.182;2022-11-20T13:51:04;4.70;;;1.13;;
3307;SDS011;1666;48.898;9.182;2022-11-20T13:53:48;2.00;;;0.82;;
3307;SDS011;1666;48.898;9.182;2022-11-20T13:56:34;2.38;;;1.10;;
3307;SDS011;1666;48.898;9.182;2022-11-20T13:59:17;4.82;;;2.00;;
3307;SDS011;1666;48.898;9.182;2022-11-20T14:01:58;1.90;;;0.95;;
3307;SDS011;1666;48.898;9.182;2022-11-20T14:04:30;5.28;;;1.75;;
3307;SDS011;1666;48.898;9.182;2022-11-20T14:07:04;2.08;;;0.80;;
3307;SDS011;1666;48.898;9.182;2022-11-20T14:09:35;2.25;;;1.00;;
3307;SDS011;1666;48.898;9.182;2022-11-20T14:12:13;2.67;;;0.90;;
3307;SDS011;1666;48.898;9.182;2022-11-20T14:14:52;1.88;;;1.02;;
3307;SDS011;1666;48.898;9.182;2022-11-20T14:17:24;1.98;;;1.10;;
3307;SDS011;1666;48.898;9.182;2022-11-20T14:19:59;3.20;;;1.20;;
3307;SDS011;1666;48.898;9.182;2022-11-20T14:22:32;2.95;;;1.10;;
3307;SDS011;1666;48.898;9.182;2022-11-20T14:25:03;2.83;;;1.00;;
3307;SDS011;1666;48.898;9.182;2022-11-20T14:27:36;3.30;;;1.10;;
3307;SDS011;1666;48.898;9.182;2022-11-20T14:30:14;2.95;;;1.60;;
3307;SDS011;1666;48.898;9.182;2022-11-20T14:32:46;1.92;;;1.15;;
3307;SDS011;1666;48.898;9.182;2022-11-20T14:35:18;3.78;;;1.33;;
3307;SDS011;1666;48.898;9.182;2022-11-20T14:37:50;3.17;;;1.58;;
3307;SDS011;1666;48.898;9.182;2022-11-20T14:40:22;11.48;;;5.00;;
3307;SDS011;1666;48.898;9.182;2022-11-20T14:42:57;2.65;;;1.27;;
3307;SDS011;1666;48.898;9.182;2022-11-20T14:45:30;4.07;;;1.90;;
3307;SDS011;1666;48.898;9.182;2022-11-20T14:48:01;2.55;;;1.42;;
3307;SDS011;1666;48.898;9.182;2022-11-20T14:50:31;10.48;;;4.22;;
3307;SDS011;1666;48.898;9.182;2022-11-20T14:53:01;4.10;;;1.35;;
3307;SDS011;1666;48.898;9.182;2022-11-20T14:55:32;4.70;;;1.70;;
3307;SDS011;1666;48.898;9.182;2022-11-20T14:58:04;3.00;;;1.20;;
3307;SDS011;1666;48.898;9.182;2022-11-20T15:00:38;2.95;;;1.50;;
3307;SDS011;1666;48.898;9.182;2022-11-20T15:03:14;1.92;;;1.40;;
3307;SDS011;1666;48.898;9.182;2022-11-20T15:05:45;3.88;;;1.50;;
3307;SDS011;1666;48.898;9.182;2022-11-20T15:08:16;6.05;;;1.52;;
3307;SDS011;1666;48.898;9.182;2022-11-20T15:10:47;2.92;;;1.40;;
3307;SDS011;1666;48.898;9.182;2022-11-20T15:13:20;2.85;;;1.55;;
3307;SDS011;1666;48.898;9.182;2022-11-20T15:15:58;3.13;;;1.50;;
3307;SDS011;1666;48.898;9.182;2022-11-20T15:18:31;7.35;;;1.90;;
3307;SDS011;1666;48.898;9.182;2022-11-20T15:21:09;2.13;;;1.65;;
3307;SDS011;1666;48.898;9.182;2022-11-20T15:23:40;2.70;;;1.73;;
3307;SDS011;1666;48.898;9.182;2022-11-20T15:26:14;4.85;;;1.95;;
3307;SDS011;1666;48.898;9.182;2022-11-20T15:28:49;2.40;;;1.50;;
3307;SDS011;1666;48.898;9.182;2022-11-20T15:31:22;3.30;;;1.77;;
3307;SDS011;1666;48.898;9.182;2022-11-20T15:33:52;2.50;;;1.67;;
3307;SDS011;1666;48.898;9.182;2022-11-20T15:36:22;2.45;;;1.58;;
3307;SDS011;1666;48.898;9.182;2022-11-20T15:38:52;2.83;;;1.42;;
3307;SDS011;1666;48.898;9.182;2022-11-20T15:41:22;4.18;;;1.80;;
3307;SDS011;1666;48.898;9.182;2022-11-20T15:43:52;6.13;;;1.92;;
3307;SDS011;1666;48.898;9.182;2022-11-20T15:46:25;2.78;;;1.70;;
3307;SDS011;1666;48.898;9.182;2022-11-20T15:48:59;5.25;;;3.72;;
3307;SDS011;1666;48.898;9.182;2022-11-20T15:51:30;4.32;;;2.00;;
3307;SDS011;1666;48.898;9.182;2022-11-20T15:54:05;4.07;;;1.90;;
3307;SDS011;1666;48.898;9.182;2022-11-20T15:56:39;3.95;;;2.08;;
3307;SDS011;1666;48.898;9.182;2022-11-20T15:59:09;4.07;;;1.73;;
3307;SDS011;1666;48.898;9.182;2022-11-20T16:01:43;4.25;;;1.65;;
3307;SDS011;1666;48.898;9.182;2022-11-20T16:04:14;3.22;;;1.95;;
3307;SDS011;1666;48.898;9.182;2022-11-20T16:06:45;4.32;;;2.08;;
3307;SDS011;1666;48.898;9.182;2022-11-20T16:09:15;3.67;;;1.75;;